Weather reports worldwide

Advertisment
Bealach, United Kingdom (3039): temperature & dewpoint: 08.10.2019 13:00:00 - 14.10.2019 13:00:00 (BST)Bealach, United Kingdom (3039): wind speed & gusts: 08.10.2019 13:00:00 - 14.10.2019 13:00:00 (BST)Bealach, United Kingdom (3039): wind direction: 08.10.2019 13:00:00 - 14.10.2019 13:00:00 (BST)
Date & Time tt [°C] td [°C] ff [km/h] ff [kn] fx [km/h] fx [kn] dd
14.10.2019 13:00:00 4,9 3,2 21 11 - - SSE
14.10.2019 12:00:00 4,5 4,1 18 10 - - S
14.10.2019 11:00:00 4,4 4,3 21 11 - - SSE
14.10.2019 10:00:00 4,1 4,1 28 15 - - S
14.10.2019 09:00:00 3,9 3,9 28 15 - - S
14.10.2019 08:00:00 3,9 3,9 24 13 - - S
14.10.2019 07:00:00 3,9 3,9 18 10 - - S
14.10.2019 06:00:00 3,8 3,8 28 15 - - SSE
14.10.2019 05:00:00 3,9 3,9 24 13 - - S
14.10.2019 04:00:00 4,0 4,0 26 14 - - S
14.10.2019 03:00:00 3,9 3,8 21 11 - - S
14.10.2019 02:00:00 4,3 4,3 21 11 - - S
14.10.2019 01:00:00 4,3 4,3 15 8 - - S
14.10.2019 00:00:00 4,1 3,8 13 7 - - SSE
13.10.2019 23:00:00 5,2 4,5 11 6 - - SSE
13.10.2019 22:00:00 5,0 4,5 11 6 - - SSE
13.10.2019 21:00:00 4,7 4,2 5 3 - - SE
13.10.2019 20:00:00 5,2 3,7 8 4 - - SE
13.10.2019 19:00:00 5,3 4,1 5 3 - - ESE
13.10.2019 18:00:00 5,4 3,3 9 5 - - E
13.10.2019 17:00:00 5,9 1,2 9 5 - - ESE
13.10.2019 16:00:00 6,0 -0,5 8 4 - - ESE
13.10.2019 15:00:00 5,8 -0,6 8 4 - - ESE
13.10.2019 14:00:00 5,8 -0,6 8 4 - - ESE
13.10.2019 13:00:00 5,4 1,3 13 7 - - ESE
13.10.2019 12:00:00 4,8 4,2 11 6 - - ESE
13.10.2019 11:00:00 5,4 4,8 5 3 - - SE
13.10.2019 10:00:00 4,4 4,3 5 3 - - SE
13.10.2019 09:00:00 4,0 4,0 5 3 - - SE
13.10.2019 08:00:00 4,0 4,0 11 6 - - ESE
13.10.2019 07:00:00 3,7 3,7 13 7 - - SE
13.10.2019 06:00:00 3,7 3,7 16 9 - - SSE
13.10.2019 05:00:00 3,8 3,8 16 9 - - S
13.10.2019 04:00:00 3,8 3,8 22 12 - - S
13.10.2019 03:00:00 3,9 3,9 21 11 - - S
13.10.2019 02:00:00 3,6 3,6 24 13 - - S
13.10.2019 01:00:00 4,0 4,0 22 12 - - S
13.10.2019 00:00:00 3,9 3,9 24 13 - - S
12.10.2019 23:00:00 4,3 4,2 26 14 - - SSW
12.10.2019 22:00:00 4,2 4,2 29 16 - - SSW
12.10.2019 21:00:00 4,2 4,2 18 10 - - SSW
12.10.2019 20:00:00 4,2 4,2 18 10 - - WSW
12.10.2019 19:00:00 4,4 4,4 31 17 - - WSW
12.10.2019 18:00:00 4,5 4,5 22 12 - - WSW
12.10.2019 17:00:00 4,5 4,5 26 14 - - SW
12.10.2019 16:00:00 4,8 4,8 34 18 - - WSW
12.10.2019 15:00:00 5,2 5,2 34 18 48 26 WSW
12.10.2019 14:00:00 4,9 4,9 28 15 - - WSW
12.10.2019 13:00:00 4,5 4,5 28 15 - - WSW
12.10.2019 12:00:00 4,4 4,3 29 16 46 25 WSW
12.10.2019 11:00:00 4,1 4,1 34 18 48 26 WSW
12.10.2019 10:00:00 3,9 3,9 37 20 54 29 WSW
12.10.2019 09:00:00 3,7 3,7 37 20 48 26 WSW
12.10.2019 08:00:00 3,8 3,8 29 16 50 27 SW
12.10.2019 07:00:00 3,4 3,4 35 19 46 25 WSW
12.10.2019 06:00:00 3,3 3,3 29 16 50 27 SW
12.10.2019 05:00:00 3,5 3,5 37 20 52 28 WSW
12.10.2019 04:00:00 3,9 3,8 34 18 46 25 W
12.10.2019 03:00:00 3,7 3,7 31 17 48 26 W
12.10.2019 02:00:00 3,6 3,6 28 15 - - W
12.10.2019 01:00:00 3,7 3,7 34 18 - - W
12.10.2019 00:00:00 3,6 3,6 35 19 54 29 WNW
11.10.2019 23:00:00 3,7 3,7 35 19 55 30 WNW
11.10.2019 22:00:00 3,9 3,9 46 25 65 35 WNW
11.10.2019 21:00:00 4,3 4,3 54 29 67 36 NW
11.10.2019 20:00:00 4,8 4,8 48 26 68 37 NW
11.10.2019 19:00:00 5,1 5,1 31 17 46 25 SW
11.10.2019 18:00:00 4,9 4,9 37 20 55 30 SW
11.10.2019 17:00:00 4,9 4,9 37 20 55 30 WSW
11.10.2019 16:00:00 5,3 5,3 42 23 59 32 SW
11.10.2019 15:00:00 5,4 5,4 41 22 59 32 WSW
11.10.2019 14:00:00 5,6 5,5 39 21 54 29 WSW
11.10.2019 13:00:00 5,5 5,5 39 21 68 37 WSW
11.10.2019 12:00:00 5,4 5,4 61 33 83 45 WSW
11.10.2019 11:00:00 5,4 5,4 67 36 83 45 SSW
11.10.2019 10:00:00 5,2 5,2 65 35 81 44 SSW
11.10.2019 09:00:00 5,1 5,1 35 19 80 43 SW
11.10.2019 08:00:00 5,3 5,3 55 30 68 37 SW
11.10.2019 07:00:00 5,2 5,2 42 23 89 48 SW
11.10.2019 06:00:00 5,7 5,7 67 36 94 51 SSW
11.10.2019 05:00:00 5,7 5,6 81 44 102 55 SSW
11.10.2019 04:00:00 5,7 5,7 67 36 91 49 SSW
11.10.2019 03:00:00 5,7 5,6 76 41 93 50 SSW
11.10.2019 02:00:00 5,3 5,3 67 36 85 46 SSW
11.10.2019 01:00:00 5,9 5,9 59 32 76 41 SSW
11.10.2019 00:00:00 5,9 5,9 55 30 83 45 SSW
10.10.2019 23:00:00 6,5 6,4 65 35 89 48 SSW
10.10.2019 22:00:00 6,3 6,3 46 25 80 43 SSW
10.10.2019 21:00:00 5,8 5,8 57 31 89 48 SSW
10.10.2019 20:00:00 6,0 6,0 42 23 59 32 SSW
10.10.2019 19:00:00 4,6 4,6 22 12 48 26 SSE
10.10.2019 18:00:00 4,0 4,0 21 11 54 29 ESE
10.10.2019 17:00:00 4,3 4,3 22 12 63 34 SSE
10.10.2019 16:00:00 4,7 4,7 41 22 59 32 SSW
10.10.2019 15:00:00 5,0 5,0 35 19 52 28 SSW
10.10.2019 14:00:00 5,0 5,0 31 17 50 27 SW
10.10.2019 13:00:00 5,0 5,0 37 20 50 27 SSW
10.10.2019 12:00:00 4,8 4,7 24 13 - - SSW
10.10.2019 11:00:00 4,5 4,5 22 12 - - WSW
10.10.2019 10:00:00 4,3 4,3 28 15 - - W
10.10.2019 09:00:00 4,0 4,0 34 18 - - W
10.10.2019 08:00:00 4,0 4,0 34 18 46 25 W
10.10.2019 07:00:00 4,4 4,4 37 20 52 28 WNW
10.10.2019 06:00:00 4,5 4,5 39 21 57 31 WNW
10.10.2019 05:00:00 4,5 4,5 50 27 65 35 NW
10.10.2019 04:00:00 4,9 4,9 44 24 65 35 WNW
10.10.2019 03:00:00 5,3 5,2 48 26 63 34 WNW
10.10.2019 02:00:00 5,4 5,4 46 25 67 36 WNW
10.10.2019 01:00:00 5,9 5,9 52 28 72 39 W
10.10.2019 00:00:00 5,9 5,9 57 31 70 38 W
09.10.2019 23:00:00 6,0 6,0 55 30 74 40 W
09.10.2019 22:00:00 6,2 6,2 55 30 76 41 W
09.10.2019 21:00:00 5,9 5,9 55 30 96 52 W
09.10.2019 20:00:00 5,9 5,9 74 40 89 48 WSW
09.10.2019 19:00:00 5,7 5,7 72 39 91 49 WSW
09.10.2019 18:00:00 5,6 5,6 65 35 87 47 WSW
09.10.2019 17:00:00 5,5 5,5 68 37 89 48 WSW
09.10.2019 16:00:00 5,4 5,4 70 38 94 51 WSW
09.10.2019 15:00:00 5,3 5,3 72 39 93 50 WSW
09.10.2019 14:00:00 5,1 5,0 59 32 96 52 W
09.10.2019 13:00:00 5,2 5,2 63 34 93 50 WSW
09.10.2019 12:00:00 5,0 5,0 68 37 85 46 WSW
09.10.2019 11:00:00 4,7 4,7 65 35 85 46 WSW
09.10.2019 10:00:00 5,0 5,0 55 30 81 44 WSW
09.10.2019 09:00:00 5,1 5,1 46 25 76 41 WSW
09.10.2019 08:00:00 4,8 4,8 54 29 76 41 WSW
09.10.2019 07:00:00 4,8 4,8 61 33 87 47 WSW
09.10.2019 06:00:00 5,0 5,0 67 36 89 48 WSW
09.10.2019 05:00:00 5,1 5,1 63 34 83 45 WSW
09.10.2019 04:00:00 4,6 4,6 65 35 83 45 WSW
09.10.2019 03:00:00 4,9 4,9 61 33 83 45 WSW
09.10.2019 02:00:00 5,1 5,1 61 33 78 42 WSW
09.10.2019 01:00:00 5,2 5,1 61 33 80 43 WSW
09.10.2019 00:00:00 5,5 5,5 61 33 89 48 WSW
08.10.2019 23:00:00 5,6 5,5 68 37 83 45 WSW
08.10.2019 22:00:00 5,6 5,5 59 32 72 39 WSW
08.10.2019 21:00:00 5,0 5,0 41 22 70 38 SW
08.10.2019 20:00:00 5,3 5,3 59 32 74 40 WSW
08.10.2019 19:00:00 5,6 5,6 44 24 63 34 SW
08.10.2019 18:00:00 5,3 5,3 44 24 70 38 WSW
08.10.2019 17:00:00 5,8 5,8 37 20 63 34 SW
08.10.2019 16:00:00 6,2 6,2 54 29 68 37 SW
08.10.2019 15:00:00 6,2 6,2 41 22 63 34 WSW
08.10.2019 14:00:00 6,1 6,1 44 24 80 43 WSW
08.10.2019 13:00:00 6,2 6,2 63 34 100 54 SW

tt = temperature
td = dewpoint
ff = wind speed
fx = gusts
dd = wind direction

Next stations